Time;durP1;ratioP1;P1;durP2;ratioP2;P2;SDS_P1;SDS_P2;PMS_P1;PMS_P2;Temp;Humidity;BMP_temperature;BMP_pressure;BME280_temperature;BME280_humidity;BME280_pressure;Samples;Min_cycle;Max_cycle;Signal;HPM_P1;HPM_P2
2021/09/11 00:02:26;;;;;;;5.37;2.95;;;;;;;16.13;57.77;100074.75;4491116;31;34375;-83
2021/09/11 00:04:55;;;;;;;6.97;3.00;;;;;;;16.10;58.04;100074.09;4480127;31;33882;-83
2021/09/11 00:07:22;;;;;;;4.30;2.67;;;;;;;16.20;57.38;100075.22;4491624;31;33713;-83
2021/09/11 00:09:50;;;;;;;6.90;2.12;;;;;;;16.12;57.67;100073.03;4478422;31;32678;-83
2021/09/11 00:12:18;;;;;;;3.55;2.53;;;;;;;16.13;57.68;100074.75;4480286;31;32856;-83
2021/09/11 00:14:45;;;;;;;3.72;2.22;;;;;;;16.22;57.11;100072.47;4476253;31;33935;-83
2021/09/11 00:17:13;;;;;;;4.35;2.40;;;;;;;15.86;58.40;100073.81;4476983;31;33625;-83
2021/09/11 00:19:41;;;;;;;4.68;2.72;;;;;;;16.07;57.85;100071.59;4491845;31;33885;-83
2021/09/11 00:22:09;;;;;;;5.70;2.10;;;;;;;16.01;57.73;100074.66;4491970;31;33228;-83
2021/09/11 00:24:38;;;;;;;8.07;2.67;;;;;;;15.93;57.94;100077.78;4480129;31;34734;-83
2021/09/11 00:27:05;;;;;;;3.12;2.42;;;;;;;15.98;57.76;100075.69;4468176;31;33444;-83
2021/09/11 00:29:37;;;;;;;7.37;3.65;;;;;;;16.05;57.58;100077.03;4495377;31;34421;-83
2021/09/11 00:32:05;;;;;;;6.57;2.37;;;;;;;16.18;57.17;100077.13;4463890;32;33504;-83
2021/09/11 00:34:33;;;;;;;4.45;2.50;;;;;;;16.03;57.52;100078.94;4477379;31;34030;-85
2021/09/11 00:37:00;;;;;;;9.40;3.08;;;;;;;15.91;58.04;100082.38;4479381;31;34782;-84
2021/09/11 00:39:28;;;;;;;2.47;2.03;;;;;;;16.04;57.40;100083.28;4491327;31;33182;-84
2021/09/11 00:41:56;;;;;;;3.65;2.47;;;;;;;16.10;56.92;100080.28;4486921;31;33193;-83
2021/09/11 00:44:24;;;;;;;3.70;2.37;;;;;;;16.07;56.96;100080.44;4487122;31;33553;-82
2021/09/11 00:46:52;;;;;;;4.45;2.70;;;;;;;15.98;57.30;100091.66;4466599;31;33344;-83
2021/09/11 00:49:20;;;;;;;4.07;2.45;;;;;;;16.03;57.21;100086.91;4490336;31;33578;-82
2021/09/11 00:51:47;;;;;;;3.97;2.53;;;;;;;15.83;57.91;100089.94;4478096;31;33077;-83
2021/09/11 00:54:15;;;;;;;4.37;2.37;;;;;;;15.96;57.45;100087.41;4488554;31;34699;-83
2021/09/11 00:56:43;;;;;;;7.45;2.47;;;;;;;15.79;58.36;100088.41;4477286;31;33118;-83
2021/09/11 00:59:11;;;;;;;5.37;2.35;;;;;;;15.78;58.44;100084.06;4479639;31;32637;-83
2021/09/11 01:01:38;;;;;;;7.82;2.55;;;;;;;15.71;58.58;100080.87;4476825;31;33464;-83
2021/09/11 01:04:08;;;;;;;3.42;2.50;;;;;;;15.75;58.25;100086.88;4490280;31;33658;-82
2021/09/11 01:06:36;;;;;;;3.17;2.10;;;;;;;15.74;58.20;100085.19;4478963;31;34081;-83
2021/09/11 01:09:03;;;;;;;5.55;2.05;;;;;;;15.79;58.03;100085.75;4479604;31;33934;-82
2021/09/11 01:11:32;;;;;;;4.40;2.60;;;;;;;15.77;58.11;100090.34;4489946;31;33322;-82
2021/09/11 01:14:00;;;;;;;3.72;2.25;;;;;;;15.69;58.57;100087.28;4479128;31;33854;-82
2021/09/11 01:16:28;;;;;;;3.30;2.22;;;;;;;15.44;59.56;100091.37;4476316;31;33800;-83
2021/09/11 01:18:56;;;;;;;3.62;2.50;;;;;;;15.66;58.70;100092.75;4474801;31;33965;-83
2021/09/11 01:21:23;;;;;;;6.32;2.30;;;;;;;15.74;58.02;100087.84;4478027;31;33131;-84
2021/09/11 01:23:51;;;;;;;3.05;2.72;;;;;;;15.57;58.70;100089.69;4462653;31;32804;-82
2021/09/11 01:26:19;;;;;;;3.62;2.78;;;;;;;15.63;58.40;100085.81;4465459;31;33065;-82
2021/09/11 01:28:58;;;;;;;4.82;2.87;;;;;;;15.70;58.31;100096.97;4491092;31;33593;-82
2021/09/11 01:31:33;;;;;;;7.15;3.03;;;;;;;15.42;59.16;100098.56;4478766;31;33833;-81
2021/09/11 01:34:01;;;;;;;7.03;2.95;;;;;;;15.35;59.37;100097.22;4480160;31;33094;-81
2021/09/11 01:36:29;;;;;;;3.20;2.85;;;;;;;15.39;59.20;100103.22;4464419;31;33031;-81
2021/09/11 01:38:56;;;;;;;4.68;2.67;;;;;;;15.35;59.42;100097.22;4476898;31;33579;-81
2021/09/11 01:41:24;;;;;;;3.08;2.10;;;;;;;15.36;59.03;100097.13;4495388;31;32960;-81
2021/09/11 01:43:52;;;;;;;4.53;2.45;;;;;;;15.40;58.69;100097.81;4479579;31;32765;-81
2021/09/11 01:46:20;;;;;;;4.18;2.22;;;;;;;15.32;58.91;100092.06;4461477;31;34026;-81
2021/09/11 01:48:47;;;;;;;7.03;2.70;;;;;;;15.33;59.02;100094.66;4489489;31;33508;-82
2021/09/11 01:51:15;;;;;;;4.50;2.60;;;;;;;15.31;59.15;100091.22;4481289;31;34125;-81
2021/09/11 01:53:42;;;;;;;5.00;2.45;;;;;;;15.22;59.72;100102.41;4477942;31;33990;-81
2021/09/11 01:56:10;;;;;;;5.28;2.30;;;;;;;15.38;59.27;100094.37;4475398;31;34560;-81
2021/09/11 01:58:38;;;;;;;4.72;2.85;;;;;;;15.31;59.37;100090.38;4491821;31;33862;-81
2021/09/11 02:01:05;;;;;;;2.47;2.10;;;;;;;15.45;58.70;100090.41;4478512;31;33438;-82
2021/09/11 02:03:33;;;;;;;5.32;2.45;;;;;;;15.22;59.65;100090.91;4477799;31;33318;-81
2021/09/11 02:06:02;;;;;;;7.12;2.33;;;;;;;15.13;60.08;100088.78;4491264;31;36163;-82
2021/09/11 02:08:29;;;;;;;4.95;3.05;;;;;;;15.10;60.03;100095.16;4478137;31;34472;-82
2021/09/11 02:10:57;;;;;;;4.95;2.22;;;;;;;15.28;59.39;100093.19;4476193;31;34019;-83
2021/09/11 02:13:25;;;;;;;2.72;2.22;;;;;;;15.14;59.82;100098.47;4465727;31;32893;-82
2021/09/11 02:15:54;;;;;;;2.70;2.50;;;;;;;15.13;59.80;100089.62;4491430;31;33773;-83
2021/09/11 02:18:21;;;;;;;5.45;2.35;;;;;;;15.00;60.31;100092.16;4478043;31;34736;-83
2021/09/11 02:20:51;;;;;;;4.35;2.17;;;;;;;14.86;60.73;100092.09;4489058;31;33403;-83
2021/09/11 02:23:19;;;;;;;4.90;2.92;;;;;;;15.03;60.08;100093.78;4461052;31;33300;-83
2021/09/11 02:25:46;;;;;;;9.25;2.33;;;;;;;14.88;60.68;100092.00;4475885;31;33993;-82
2021/09/11 02:28:14;;;;;;;5.18;2.62;;;;;;;15.07;59.81;100088.19;4489483;31;33930;-83
2021/09/11 02:30:43;;;;;;;4.43;2.35;;;;;;;15.09;59.47;100085.44;4488966;31;33320;-83
2021/09/11 02:33:11;;;;;;;3.05;2.58;;;;;;;15.08;59.52;100086.38;4492693;31;33842;-83
2021/09/11 02:35:39;;;;;;;6.12;2.90;;;;;;;15.06;59.80;100090.94;4465009;31;34467;-82
2021/09/11 02:38:07;;;;;;;4.82;2.70;;;;;;;15.00;59.88;100092.16;4476157;32;33066;-83
2021/09/11 02:40:34;;;;;;;4.28;2.53;;;;;;;14.95;60.08;100088.88;4493172;31;33490;-83
2021/09/11 02:43:02;;;;;;;6.37;2.80;;;;;;;15.09;59.42;100083.63;4495141;31;33846;-82
2021/09/11 02:45:30;;;;;;;5.07;2.65;;;;;;;15.03;59.43;100081.31;4489953;31;34713;-83
2021/09/11 02:47:57;;;;;;;3.50;2.28;;;;;;;15.04;59.24;100088.34;4465134;31;33858;-83
2021/09/11 02:50:25;;;;;;;2.95;2.42;;;;;;;14.92;59.67;100094.37;4479851;31;32425;-83
2021/09/11 02:52:53;;;;;;;2.97;2.15;;;;;;;14.94;59.46;100092.50;4480665;31;33872;-83
2021/09/11 02:55:21;;;;;;;4.53;3.25;;;;;;;14.95;59.48;100096.84;4493095;31;33884;-83
2021/09/11 02:57:48;;;;;;;5.25;2.30;;;;;;;14.96;59.60;100097.75;4477729;31;34229;-82
2021/09/11 03:00:16;;;;;;;3.90;2.25;;;;;;;14.79;59.99;100102.19;4490017;31;32638;-83
2021/09/11 03:02:51;;;;;;;4.57;2.40;;;;;;;14.79;59.90;100099.53;4478097;31;33975;-82
2021/09/11 03:05:20;;;;;;;9.93;2.75;;;;;;;14.90;59.69;100095.41;4480696;31;34866;-82
2021/09/11 03:07:47;;;;;;;4.30;1.98;;;;;;;14.86;59.59;100105.37;4472606;31;32816;-83
2021/09/11 03:10:15;;;;;;;6.15;2.65;;;;;;;14.85;59.99;100095.66;4480160;31;33249;-83
2021/09/11 03:12:43;;;;;;;5.40;2.55;;;;;;;14.96;59.53;100095.94;4477254;32;33923;-83
2021/09/11 03:15:12;;;;;;;4.03;2.83;;;;;;;14.97;59.31;100097.63;4474669;31;34824;-82
2021/09/11 03:17:39;;;;;;;8.98;2.60;;;;;;;14.93;59.35;100101.41;4480811;31;33949;-82
2021/09/11 03:20:08;;;;;;;3.22;2.37;;;;;;;14.70;60.00;100102.72;4477914;31;33257;-82
2021/09/11 03:22:36;;;;;;;4.32;2.67;;;;;;;14.84;59.60;100097.47;4488088;31;32737;-83
2021/09/11 03:25:04;;;;;;;3.20;2.10;;;;;;;14.86;59.55;100102.72;4481273;31;33763;-83
2021/09/11 03:27:31;;;;;;;3.12;2.35;;;;;;;14.70;59.93;100102.72;4478607;31;33995;-83
2021/09/11 03:29:59;;;;;;;4.25;2.60;;;;;;;14.62;60.26;100101.41;4481326;31;33735;-84
2021/09/11 03:32:27;;;;;;;5.28;3.35;;;;;;;14.66;60.20;100103.81;4491168;31;33828;-83
2021/09/11 03:34:54;;;;;;;4.45;2.78;;;;;;;14.30;61.09;100104.87;4477771;32;33821;-83
2021/09/11 03:37:22;;;;;;;5.50;3.00;;;;;;;14.57;60.44;100102.56;4488562;31;33566;-83
2021/09/11 03:39:50;;;;;;;4.03;2.67;;;;;;;14.74;59.87;100095.44;4480168;31;34389;-83
2021/09/11 03:42:18;;;;;;;3.65;2.60;;;;;;;14.74;60.03;100098.09;4479247;31;33393;-83
2021/09/11 03:44:45;;;;;;;5.20;2.67;;;;;;;14.66;60.29;100097.66;4478919;31;35134;-84
2021/09/11 03:47:13;;;;;;;5.43;3.22;;;;;;;14.74;59.76;100095.44;4479678;31;33550;-83
2021/09/11 03:49:42;;;;;;;4.30;2.78;;;;;;;14.69;59.96;100095.69;4480601;31;33341;-84
2021/09/11 03:52:09;;;;;;;3.25;2.70;;;;;;;14.59;60.42;100097.16;4481204;31;33599;-83
2021/09/11 03:54:37;;;;;;;9.93;2.40;;;;;;;14.64;60.33;100091.56;4477419;31;35042;-83
2021/09/11 03:57:05;;;;;;;4.90;2.80;;;;;;;14.62;60.37;100085.47;4489216;31;33543;-84
2021/09/11 03:59:33;;;;;;;4.87;2.62;;;;;;;14.57;60.52;100089.25;4475775;31;33404;-83
2021/09/11 04:02:00;;;;;;;8.05;3.33;;;;;;;14.39;61.20;100082.28;4490616;31;33854;-84
2021/09/11 04:04:29;;;;;;;3.15;2.72;;;;;;;14.57;60.70;100089.25;4481407;31;33737;-84
2021/09/11 04:06:57;;;;;;;4.87;2.47;;;;;;;14.53;60.80;100093.03;4488205;31;33885;-83
2021/09/11 04:09:25;;;;;;;5.00;3.12;;;;;;;14.47;60.63;100090.66;4494545;31;33039;-83
2021/09/11 04:11:53;;;;;;;4.40;2.97;;;;;;;14.58;60.15;100095.44;4491894;31;33469;-84
2021/09/11 04:14:20;;;;;;;6.20;2.92;;;;;;;14.57;60.09;100089.25;4473240;31;34407;-82
2021/09/11 04:16:48;;;;;;;2.75;2.35;;;;;;;14.43;60.65;100094.44;4494961;31;33799;-82
2021/09/11 04:19:19;;;;;;;3.78;2.40;;;;;;;14.42;60.86;100087.41;4481562;31;33881;-83
2021/09/11 04:21:46;;;;;;;5.05;3.30;;;;;;;14.41;61.00;100092.81;4487846;31;34445;-83
2021/09/11 04:24:14;;;;;;;4.40;2.75;;;;;;;14.55;60.50;100091.13;4464984;31;33273;-83
2021/09/11 04:26:42;;;;;;;5.62;3.67;;;;;;;14.57;60.61;100088.37;4490116;31;33431;-83
2021/09/11 04:29:09;;;;;;;4.20;3.20;;;;;;;14.40;61.39;100099.91;4490399;31;32450;-83
2021/09/11 04:31:37;;;;;;;3.55;2.80;;;;;;;14.27;62.26;100102.38;4482036;31;33506;-83
2021/09/11 04:34:05;;;;;;;5.10;2.90;;;;;;;14.45;61.86;100094.34;4477937;31;33594;-83
2021/09/11 04:36:32;;;;;;;7.03;2.85;;;;;;;14.49;61.41;100094.13;4475822;32;33118;-83
2021/09/11 04:39:00;;;;;;;5.60;3.00;;;;;;;14.46;61.77;100086.28;4487105;31;32653;-83
2021/09/11 04:41:27;;;;;;;4.05;2.85;;;;;;;14.41;62.03;100093.66;4491431;31;33961;-83
2021/09/11 04:43:55;;;;;;;3.53;3.17;;;;;;;14.48;61.64;100089.78;4488941;31;34577;-83
2021/09/11 04:46:22;;;;;;;4.30;2.83;;;;;;;14.62;61.30;100096.09;4478837;31;34396;-82
2021/09/11 04:48:50;;;;;;;4.25;2.87;;;;;;;14.45;61.86;100092.56;4487540;31;33433;-83
2021/09/11 04:51:18;;;;;;;4.43;3.12;;;;;;;14.56;61.51;100098.16;4490961;31;34341;-83
2021/09/11 04:53:45;;;;;;;8.55;4.07;;;;;;;14.39;62.19;100098.22;4481362;31;34584;-83
2021/09/11 04:56:13;;;;;;;4.40;3.10;;;;;;;14.50;62.01;100093.19;4490356;31;33806;-83
2021/09/11 04:58:41;;;;;;;5.62;2.83;;;;;;;14.52;61.97;100099.25;4473617;31;34148;-82
2021/09/11 05:01:08;;;;;;;5.78;2.70;;;;;;;14.58;61.80;100096.28;4494233;31;35267;-83
2021/09/11 05:03:36;;;;;;;7.68;3.87;;;;;;;14.68;61.28;100091.31;4480425;31;33035;-83
2021/09/11 05:06:04;;;;;;;9.27;4.05;;;;;;;14.74;61.34;100095.44;4490205;31;33782;-82
2021/09/11 05:08:32;;;;;;;5.80;3.62;;;;;;;14.50;62.34;100093.19;4475711;31;33372;-82
2021/09/11 05:11:00;;;;;;;6.35;2.83;;;;;;;14.81;61.89;100096.78;4489974;31;33910;-82
2021/09/11 05:13:28;;;;;;;5.50;3.22;;;;;;;14.67;62.63;100104.66;4491233;31;33517;-82
2021/09/11 05:15:55;;;;;;;6.90;3.80;;;;;;;14.73;62.66;100099.88;4477551;31;33893;-82
2021/09/11 05:18:23;;;;;;;5.97;4.30;;;;;;;15.05;61.55;100111.37;4477900;31;33343;-82
2021/09/11 05:20:51;;;;;;;8.55;3.70;;;;;;;15.04;61.88;100099.00;4489715;31;34844;-82
2021/09/11 05:23:18;;;;;;;5.35;3.87;;;;;;;15.18;61.66;100100.84;4488636;31;34069;-82
2021/09/11 05:25:46;;;;;;;5.78;4.10;;;;;;;15.47;60.63;100103.62;4476295;31;33306;-82
2021/09/11 05:28:14;;;;;;;5.45;3.55;;;;;;;15.57;60.62;100100.34;4476670;31;33038;-82
2021/09/11 05:30:41;;;;;;;9.52;3.95;;;;;;;15.65;61.34;100105.22;4487729;31;34420;-82
2021/09/11 05:33:09;;;;;;;5.55;3.28;;;;;;;15.81;60.52;100102.53;4489429;31;34459;-83
2021/09/11 05:35:41;;;;;;;4.57;3.63;;;;;;;15.83;60.80;100104.13;4477212;31;34529;-83
2021/09/11 05:38:08;;;;;;;4.45;2.92;;;;;;;15.91;60.58;100111.66;4486023;31;33899;-83
2021/09/11 05:40:36;;;;;;;8.48;3.28;;;;;;;15.78;60.70;100105.34;4468976;31;32842;-83
2021/09/11 05:43:03;;;;;;;7.72;2.95;;;;;;;16.25;59.46;100105.09;4478315;31;34762;-83
2021/09/11 05:45:31;;;;;;;6.37;3.78;;;;;;;16.20;60.17;100103.69;4468372;31;33086;-82
2021/09/11 05:47:59;;;;;;;8.40;3.25;;;;;;;16.47;58.16;100109.91;4482011;31;33355;-82
2021/09/11 05:50:26;;;;;;;7.78;4.28;;;;;;;16.60;58.49;100100.19;4476247;31;33660;-82
2021/09/11 05:52:54;;;;;;;5.68;4.00;;;;;;;16.70;57.59;100099.62;4474738;32;35020;-83
2021/09/11 05:55:22;;;;;;;4.28;2.78;;;;;;;16.82;58.99;100104.19;4483607;31;34124;-83
2021/09/11 05:57:49;;;;;;;7.55;3.08;;;;;;;16.69;59.15;100098.75;4490369;31;33896;-84
2021/09/11 06:00:17;;;;;;;8.45;3.45;;;;;;;16.57;58.53;100097.75;4490448;31;33522;-82
2021/09/11 06:02:44;;;;;;;4.03;3.47;;;;;;;17.08;58.63;100103.34;4487535;31;33305;-82
2021/09/11 06:05:12;;;;;;;5.18;3.58;;;;;;;17.40;58.72;100085.19;4479817;31;32810;-82
2021/09/11 06:07:42;;;;;;;5.62;3.95;;;;;;;17.57;58.89;100086.72;4479787;31;32335;-82
2021/09/11 06:10:10;;;;;;;5.32;3.97;;;;;;;17.72;58.44;100091.97;4489534;31;34388;-82
2021/09/11 06:12:38;;;;;;;5.40;3.40;;;;;;;17.83;57.10;100087.63;4479295;31;34522;-82
2021/09/11 06:15:07;;;;;;;9.95;3.78;;;;;;;17.69;56.79;100094.84;4476540;31;33783;-82
2021/09/11 06:17:35;;;;;;;11.32;3.25;;;;;;;17.49;55.85;100099.72;4465447;31;32657;-82
2021/09/11 06:20:04;;;;;;;8.02;3.72;;;;;;;17.59;53.33;100102.63;4477351;31;34783;-82
2021/09/11 06:22:31;;;;;;;8.60;3.55;;;;;;;18.05;53.39;100103.03;4489379;31;33307;-82
2021/09/11 06:24:59;;;;;;;5.07;3.12;;;;;;;18.56;52.32;100102.09;4477355;31;33395;-83
2021/09/11 06:27:27;;;;;;;4.50;3.10;;;;;;;18.52;52.36;100104.16;4492823;31;32581;-82
2021/09/11 06:29:54;;;;;;;6.93;3.00;;;;;;;18.51;52.54;100102.44;4490904;31;34775;-83
2021/09/11 06:32:22;;;;;;;7.70;3.55;;;;;;;18.73;51.43;100098.25;4496102;31;34100;-82
2021/09/11 06:34:50;;;;;;;8.00;4.32;;;;;;;18.96;51.87;100093.91;4477906;31;33682;-82
2021/09/11 06:37:17;;;;;;;6.12;4.07;;;;;;;19.55;49.53;100104.59;4492617;31;33430;-82
2021/09/11 06:39:45;;;;;;;6.07;3.62;;;;;;;19.86;49.03;100101.31;4493194;31;34455;-82
2021/09/11 06:42:15;;;;;;;4.70;2.75;;;;;;;20.06;51.54;100113.16;4478060;31;34741;-82
2021/09/11 06:44:42;;;;;;;8.48;3.45;;;;;;;20.20;49.72;100107.56;4494213;31;34326;-82
2021/09/11 06:47:10;;;;;;;8.48;2.78;;;;;;;20.51;49.64;100102.50;4489890;31;32962;-82
2021/09/11 06:49:38;;;;;;;3.50;2.55;;;;;;;20.39;48.29;100112.34;4492942;31;33563;-83
2021/09/11 06:52:06;;;;;;;4.45;2.78;;;;;;;20.33;48.76;100107.47;4473840;31;33312;-83
2021/09/11 06:54:34;;;;;;;10.10;3.42;;;;;;;20.94;46.13;100101.69;4466819;31;33064;-83
2021/09/11 06:57:02;;;;;;;3.42;2.35;;;;;;;21.25;46.51;100096.47;4492437;31;33492;-83
2021/09/11 06:59:30;;;;;;;5.82;3.12;;;;;;;21.16;45.25;100103.44;4493259;31;32855;-85
2021/09/11 07:01:58;;;;;;;2.97;2.50;;;;;;;21.23;44.74;100093.91;4462968;32;33383;-83
2021/09/11 07:04:26;;;;;;;5.40;2.58;;;;;;;21.45;43.54;100092.97;4476877;31;33793;-84
2021/09/11 07:06:54;;;;;;;2.78;2.03;;;;;;;21.81;44.42;100089.00;4479512;31;33840;-84
2021/09/11 07:09:21;;;;;;;7.78;2.72;;;;;;;21.48;42.63;100096.28;4481896;31;34585;-84
2021/09/11 07:11:49;;;;;;;4.22;2.85;;;;;;;21.41;43.90;100103.16;4466462;31;34964;-82
2021/09/11 07:14:17;;;;;;;6.40;2.92;;;;;;;21.85;42.45;100094.97;4489223;31;34662;-83
2021/09/11 07:16:44;;;;;;;5.90;3.10;;;;;;;21.94;41.59;100099.56;4475173;32;33310;-82
2021/09/11 07:19:12;;;;;;;5.93;3.28;;;;;;;22.23;40.90;100102.44;4476632;31;32772;-82
2021/09/11 07:21:40;;;;;;;5.35;2.70;;;;;;;22.29;40.48;100103.72;4492817;31;34190;-82
2021/09/11 07:24:08;;;;;;;6.80;2.50;;;;;;;22.84;40.49;100093.44;4478935;31;32998;-82
2021/09/11 07:26:35;;;;;;;4.35;2.53;;;;;;;22.69;39.71;100104.59;4489157;31;34349;-82
2021/09/11 07:29:03;;;;;;;7.75;2.40;;;;;;;22.87;38.70;100094.00;4488863;31;33933;-82
2021/09/11 07:31:31;;;;;;;4.28;2.60;;;;;;;23.05;38.33;100102.28;4489659;31;33826;-83
2021/09/11 07:33:58;;;;;;;6.10;2.97;;;;;;;23.18;39.56;100100.19;4475537;31;33623;-82
2021/09/11 07:36:27;;;;;;;7.82;2.70;;;;;;;23.14;38.09;100093.38;4487107;31;33100;-82
2021/09/11 07:38:54;;;;;;;3.70;2.78;;;;;;;23.10;39.16;100100.03;4489720;31;34780;-83
2021/09/11 07:41:22;;;;;;;3.87;2.80;;;;;;;23.11;38.20;100096.34;4477267;31;33876;-82
2021/09/11 07:43:50;;;;;;;4.28;2.58;;;;;;;23.32;39.25;100098.06;4478573;31;32744;-83
2021/09/11 07:46:18;;;;;;;7.93;2.83;;;;;;;23.45;38.48;100098.63;4486677;31;35858;-82
2021/09/11 07:48:45;;;;;;;4.22;2.70;;;;;;;23.12;39.94;100097.19;4476260;31;33337;-82
2021/09/11 07:51:13;;;;;;;6.37;3.65;;;;;;;23.68;39.14;100104.59;4490715;31;34033;-83
2021/09/11 07:53:41;;;;;;;8.48;2.60;;;;;;;23.99;38.23;100100.72;4492743;31;33388;-84
2021/09/11 07:56:10;;;;;;;3.62;2.30;;;;;;;24.05;37.06;100099.28;4476868;31;33612;-83
2021/09/11 07:58:37;;;;;;;4.30;2.92;;;;;;;24.22;37.07;100111.16;4491689;31;33244;-83
2021/09/11 08:01:05;;;;;;;5.47;3.22;;;;;;;24.65;36.06;100105.19;4477138;31;33613;-83
2021/09/11 08:03:34;;;;;;;10.70;3.20;;;;;;;24.67;35.84;100102.34;4471776;31;33620;-83
2021/09/11 08:06:07;;;;;;;6.93;2.80;;;;;;;24.89;36.74;100101.06;4480224;31;32937;-83
2021/09/11 08:08:36;;;;;;;4.65;3.30;;;;;;;24.61;38.02;100106.47;4491383;31;34014;-82
2021/09/11 08:11:06;;;;;;;6.62;2.87;;;;;;;25.09;35.04;100104.53;4467443;31;33404;-82
2021/09/11 08:13:35;;;;;;;5.05;3.75;;;;;;;25.25;35.81;100108.22;4489558;31;33774;-83
2021/09/11 08:16:03;;;;;;;3.67;2.50;;;;;;;25.11;36.46;100100.66;4476450;31;33111;-82
2021/09/11 08:18:31;;;;;;;6.80;2.83;;;;;;;24.85;35.00;100096.97;4489571;31;33311;-85
2021/09/11 08:20:59;;;;;;;3.12;2.53;;;;;;;25.09;34.31;100097.28;4481862;31;34210;-86
2021/09/11 08:23:27;;;;;;;6.55;2.53;;;;;;;25.39;36.09;100103.28;4476743;31;32329;-85
2021/09/11 08:25:54;;;;;;;4.90;3.08;;;;;;;25.46;33.29;100098.97;4477848;31;34214;-85
2021/09/11 08:28:22;;;;;;;5.78;3.22;;;;;;;25.62;34.92;100092.84;4487680;31;33539;-85
2021/09/11 08:30:50;;;;;;;2.62;2.33;;;;;;;25.34;33.12;100097.50;4476189;31;33686;-88
2021/09/11 08:33:23;;;;;;;4.57;2.47;;;;;;;25.62;33.22;100092.84;4485216;31;33838;-85
2021/09/11 08:35:51;;;;;;;4.00;3.15;;;;;;;25.34;33.42;100100.22;4492145;31;33401;-85
2021/09/11 08:38:18;;;;;;;7.87;2.95;;;;;;;25.59;33.62;100093.16;4470595;31;33028;-85
2021/09/11 08:40:46;;;;;;;9.32;3.58;;;;;;;25.40;33.42;100092.34;4487286;31;33662;-85
2021/09/11 08:43:16;;;;;;;3.65;2.65;;;;;;;25.81;32.68;100081.03;4473989;31;32776;-85
2021/09/11 08:45:44;;;;;;;4.05;2.70;;;;;;;25.77;32.73;100084.03;4482972;32;32902;-85
2021/09/11 08:48:12;;;;;;;8.00;2.30;;;;;;;25.96;32.66;100087.53;4475730;31;33175;-86
2021/09/11 08:50:40;;;;;;;4.85;2.35;;;;;;;26.20;33.09;100087.69;4490042;31;34795;-86
2021/09/11 08:53:09;;;;;;;4.43;2.97;;;;;;;26.62;32.34;100081.50;4480436;31;33226;-85
2021/09/11 08:55:37;;;;;;;4.15;2.72;;;;;;;26.62;32.28;100081.50;4479485;31;33369;-85
2021/09/11 08:58:07;;;;;;;3.10;2.33;;;;;;;26.20;31.85;100076.88;4479910;31;33867;-86
2021/09/11 09:00:50;;;;;;;5.55;2.80;;;;;;;26.72;32.75;100076.78;4494966;31;34743;-86
2021/09/11 09:03:39;;;;;;;3.37;2.58;;;;;;;26.85;31.83;100075.47;4476700;31;33275;-85
2021/09/11 09:06:23;;;;;;;11.20;3.20;;;;;;;26.74;31.01;100074.78;4494219;31;33368;-88
2021/09/11 09:08:55;;;;;;;4.97;2.50;;;;;;;27.31;30.42;100066.78;4473873;31;32955;-87
2021/09/11 09:11:28;;;;;;;5.30;2.47;;;;;;;27.16;30.93;100067.63;4471294;31;33449;-87
2021/09/11 09:13:59;;;;;;;8.43;2.80;;;;;;;27.38;31.40;100071.53;4494746;31;34035;-85
2021/09/11 09:16:33;;;;;;;2.33;2.10;;;;;;;27.77;29.26;100061.72;4472060;31;32883;-85
2021/09/11 09:19:23;;;;;;;4.95;2.50;;;;;;;27.79;28.98;100062.38;4480956;31;33891;-83
2021/09/11 09:21:53;;;;;;;2.80;2.22;;;;;;;27.56;29.25;100066.78;4500368;31;34021;-83
2021/09/11 09:24:32;;;;;;;10.23;3.15;;;;;;;28.07;30.20;100062.84;4465065;31;34469;-83
2021/09/11 09:27:03;;;;;;;3.17;2.33;;;;;;;28.30;27.74;100056.69;4462236;31;32303;-83
2021/09/11 09:29:34;;;;;;;4.07;2.53;;;;;;;27.94;28.78;100058.97;4476059;31;34003;-83
2021/09/11 09:32:03;;;;;;;5.07;3.17;;;;;;;28.22;28.99;100054.81;4486841;31;34150;-83
2021/09/11 09:34:43;;;;;;;5.18;2.60;;;;;;;28.36;30.57;100055.16;4485243;31;34433;-83
2021/09/11 09:37:13;;;;;;;2.80;2.55;;;;;;;28.11;28.53;100052.50;4479952;31;32679;-83
2021/09/11 09:39:47;;;;;;;7.78;2.80;;;;;;;28.45;27.30;100041.38;4479325;31;33821;-83
2021/09/11 09:42:17;;;;;;;5.25;2.65;;;;;;;28.42;28.37;100049.84;4482429;31;34114;-83
2021/09/11 09:44:47;;;;;;;6.62;2.70;;;;;;;28.58;27.90;100038.94;4500900;31;33040;-83
2021/09/11 09:47:19;;;;;;;4.07;2.50;;;;;;;28.88;28.09;100043.69;4479615;31;33870;-84
2021/09/11 09:50:07;;;;;;;2.20;1.42;;;;;;;28.68;26.58;100037.88;4501549;31;33550;-84
2021/09/11 09:52:36;;;;;;;4.80;2.70;;;;;;;28.98;24.64;100045.16;4475862;31;34003;-83
2021/09/11 09:55:06;;;;;;;4.47;1.92;;;;;;;29.31;26.46;100045.78;4475014;31;33668;-83
2021/09/11 09:57:38;;;;;;;2.80;1.87;;;;;;;29.31;23.29;100039.50;4480316;32;32322;-84
2021/09/11 10:00:06;;;;;;;6.97;2.20;;;;;;;29.29;22.58;100031.53;4477004;31;33718;-83
2021/09/11 10:02:34;;;;;;;7.75;2.60;;;;;;;29.93;24.53;100035.72;4465731;32;34760;-83
2021/09/11 10:05:03;;;;;;;2.37;1.30;;;;;;;29.70;23.98;100038.50;4476834;31;34094;-83
2021/09/11 10:07:30;;;;;;;2.90;1.80;;;;;;;29.95;21.61;100030.91;4491933;31;33470;-84
2021/09/11 10:09:58;;;;;;;2.35;2.00;;;;;;;29.69;24.40;100029.50;4475342;31;33097;-83
2021/09/11 10:12:33;;;;;;;3.67;2.17;;;;;;;29.87;23.42;100026.41;4480147;31;34000;-84
2021/09/11 10:15:19;;;;;;;3.47;1.90;;;;;;;29.84;23.39;100026.78;4476655;31;32881;-83
2021/09/11 10:17:47;;;;;;;2.58;1.60;;;;;;;29.90;23.18;100022.47;4495368;31;33028;-84
2021/09/11 10:20:15;;;;;;;4.05;1.83;;;;;;;29.80;22.77;100017.28;4474684;31;33321;-83
2021/09/11 10:23:05;;;;;;;4.28;1.92;;;;;;;30.43;21.84;100012.31;4478509;31;33141;-83
2021/09/11 10:25:40;;;;;;;3.65;1.92;;;;;;;30.56;21.27;100015.22;4479300;31;33902;-83
2021/09/11 10:28:21;;;;;;;4.57;2.15;;;;;;;30.86;22.86;100007.84;4476774;31;32556;-84
2021/09/11 10:31:15;;;;;;;4.00;2.40;;;;;;;30.68;24.81;100019.16;4494075;31;32384;-84
2021/09/11 10:33:45;;;;;;;6.85;2.15;;;;;;;31.08;21.88;100011.41;4478542;31;33637;-91
2021/09/11 10:36:24;;;;;;;3.45;1.85;;;;;;;31.27;23.05;100012.66;4492461;31;34752;-85
2021/09/11 10:38:52;;;;;;;4.70;1.98;;;;;;;31.26;21.62;100009.06;4475347;31;34016;-89
2021/09/11 10:41:29;;;;;;;2.35;2.10;;;;;;;31.08;22.10;99998.63;4500809;31;34353;-88
2021/09/11 10:44:08;;;;;;;2.92;1.75;;;;;;;31.68;20.86;100007.34;4488130;31;34031;-88
2021/09/11 10:46:48;;;;;;;2.78;2.05;;;;;;;31.61;23.73;100003.72;4475545;31;34367;-88
2021/09/11 10:49:39;;;;;;;6.22;1.77;;;;;;;30.99;21.73;100009.84;4462589;31;32700;-88
2021/09/11 10:52:10;;;;;;;7.78;2.10;;;;;;;30.84;21.29;100001.72;4477929;31;34252;-86
2021/09/11 10:54:41;;;;;;;7.10;1.90;;;;;;;31.45;21.78;99995.81;4480717;31;34865;-87
2021/09/11 10:57:14;;;;;;;2.37;1.92;;;;;;;31.54;22.06;99989.19;4478650;31;33105;-88
2021/09/11 10:59:46;;;;;;;4.10;1.98;;;;;;;31.70;23.51;99994.31;4472163;31;33546;-87
2021/09/11 11:02:33;;;;;;;5.15;2.70;;;;;;;32.05;22.28;99980.72;4473091;32;34421;-87
2021/09/11 11:05:04;;;;;;;4.22;1.70;;;;;;;31.94;21.42;99984.84;4479212;31;33508;-88
2021/09/11 11:07:34;;;;;;;4.22;1.80;;;;;;;31.98;20.88;99988.88;4472759;31;33033;-87
2021/09/11 11:10:07;;;;;;;5.85;1.90;;;;;;;32.13;20.34;99981.38;4489780;31;33618;-87
2021/09/11 11:12:44;;;;;;;2.40;1.77;;;;;;;32.24;20.99;99979.97;4477867;31;33843;-87
2021/09/11 11:15:17;;;;;;;4.28;1.73;;;;;;;32.16;19.65;99977.41;4489498;31;34832;-87
2021/09/11 11:17:47;;;;;;;2.83;2.10;;;;;;;31.59;21.43;99970.31;4492850;31;33718;-87
2021/09/11 11:20:29;;;;;;;2.22;2.00;;;;;;;31.78;20.62;99961.41;4462677;32;33736;-88
2021/09/11 11:23:00;;;;;;;6.75;1.87;;;;;;;31.28;20.01;99959.78;4499655;31;32875;-87
2021/09/11 11:25:35;;;;;;;5.65;1.98;;;;;;;31.94;20.48;99964.88;4474272;32;33632;-87
2021/09/11 11:28:05;;;;;;;5.70;2.15;;;;;;;31.81;20.77;99958.28;4490566;31;34521;-88
2021/09/11 11:30:34;;;;;;;5.47;1.95;;;;;;;32.05;22.04;99958.88;4481286;31;33342;-88
2021/09/11 11:33:04;;;;;;;5.53;1.95;;;;;;;32.13;21.81;99956.78;4475904;31;32721;-88
2021/09/11 11:35:33;;;;;;;11.60;2.72;;;;;;;32.20;20.32;99951.38;4496159;31;34037;-88
2021/09/11 11:38:01;;;;;;;3.67;2.12;;;;;;;32.41;20.72;99957.78;4466801;31;33216;-88